Time;durP1;ratioP1;P1;durP2;ratioP2;P2;SDS_P1;SDS_P2;PMS_P1;PMS_P2;Temp;Humidity;BMP_temperature;BMP_pressure;BME280_temperature;BME280_humidity;BME280_pressure;Samples;Min_cycle;Max_cycle;Signal;HPM_P1;HPM_P2
2024/01/18 00:01:48;;;;;;;27.53;19.13;;;;;;;;;;5093105;28;20460;-67
2024/01/18 00:04:15;;;;;;;26.17;18.60;;;;;;;;;;5092095;28;20459;-67
2024/01/18 00:06:41;;;;;;;22.80;17.90;;;;;;;;;;5088310;28;20893;-67
2024/01/18 00:09:09;;;;;;;28.10;19.50;;;;;;;;;;5092731;28;20452;-67
2024/01/18 00:11:35;;;;;;;23.40;20.30;;;;;;;;;;5093795;28;20447;-67
2024/01/18 00:14:02;;;;;;;25.03;20.47;;;;;;;;;;5091770;28;20951;-67
2024/01/18 00:16:29;;;;;;;44.83;21.17;;;;;;;;;;5084830;28;20526;-67
2024/01/18 00:18:55;;;;;;;23.97;19.13;;;;;;;;;;5096559;28;20493;-67
2024/01/18 00:21:22;;;;;;;32.87;19.60;;;;;;;;;;5093155;28;20451;-68
2024/01/18 00:23:48;;;;;;;23.47;18.97;;;;;;;;;;5086787;28;20486;-67
2024/01/18 00:26:16;;;;;;;22.30;19.07;;;;;;;;;;5095252;28;20483;-66
2024/01/18 00:28:42;;;;;;;22.27;20.00;;;;;;;;;;5090407;28;20447;-66
2024/01/18 00:31:09;;;;;;;25.57;19.87;;;;;;;;;;5091890;28;21359;-67
2024/01/18 00:33:35;;;;;;;25.63;18.93;;;;;;;;;;5090082;28;20494;-67
2024/01/18 00:36:02;;;;;;;22.17;18.50;;;;;;;;;;5096141;28;20490;-67
2024/01/18 00:38:28;;;;;;;23.77;19.53;;;;;;;;;;5088400;28;20536;-66
2024/01/18 00:40:54;;;;;;;27.40;18.57;;;;;;;;;;5089890;28;21015;-66
2024/01/18 00:43:22;;;;;;;22.13;19.37;;;;;;;;;;5101177;28;20458;-66
2024/01/18 00:45:48;;;;;;;24.43;20.83;;;;;;;;;;5088254;28;20466;-67
2024/01/18 00:48:15;;;;;;;22.50;20.10;;;;;;;;;;5095492;28;20477;-67
2024/01/18 00:50:41;;;;;;;27.07;18.50;;;;;;;;;;5091468;28;20509;-66
2024/01/18 00:53:08;;;;;;;31.03;19.57;;;;;;;;;;5095940;28;21336;-67
2024/01/18 00:55:34;;;;;;;21.63;18.40;;;;;;;;;;5092721;28;20547;-67
2024/01/18 00:58:01;;;;;;;26.00;19.67;;;;;;;;;;5087693;28;20959;-67
2024/01/18 01:00:29;;;;;;;29.70;18.57;;;;;;;;;;5095019;28;20454;-66
2024/01/18 01:02:55;;;;;;;23.17;19.37;;;;;;;;;;5095767;28;20513;-66
2024/01/18 01:05:22;;;;;;;25.67;20.50;;;;;;;;;;5095985;28;20975;-66
2024/01/18 01:07:48;;;;;;;29.83;20.47;;;;;;;;;;5096646;28;20518;-66
2024/01/18 01:10:15;;;;;;;21.97;18.60;;;;;;;;;;5094860;28;20462;-67
2024/01/18 01:12:42;;;;;;;25.37;19.10;;;;;;;;;;5093492;28;20608;-66
2024/01/18 01:15:09;;;;;;;29.27;17.87;;;;;;;;;;5094805;28;21000;-67
2024/01/18 01:17:36;;;;;;;25.13;18.83;;;;;;;;;;5093119;28;20471;-67
2024/01/18 01:20:03;;;;;;;23.07;18.07;;;;;;;;;;5094243;28;20958;-66
2024/01/18 01:22:29;;;;;;;23.57;18.13;;;;;;;;;;5095491;28;20520;-66
2024/01/18 01:24:56;;;;;;;23.13;20.70;;;;;;;;;;5091182;28;20467;-66
2024/01/18 01:27:22;;;;;;;25.63;18.47;;;;;;;;;;5089459;28;20442;-66
2024/01/18 01:29:48;;;;;;;25.50;19.53;;;;;;;;;;5092151;28;20489;-66
2024/01/18 01:32:15;;;;;;;22.70;18.57;;;;;;;;;;5094385;28;20439;-66
2024/01/18 01:34:42;;;;;;;23.27;19.00;;;;;;;;;;5099580;28;20486;-66
2024/01/18 01:37:09;;;;;;;21.70;17.20;;;;;;;;;;5097557;28;20467;-67
2024/01/18 01:39:35;;;;;;;22.23;19.80;;;;;;;;;;5094213;28;20521;-67
2024/01/18 01:42:03;;;;;;;22.80;20.20;;;;;;;;;;5097483;28;20456;-67
2024/01/18 01:44:29;;;;;;;25.90;21.03;;;;;;;;;;5093270;28;20469;-66
2024/01/18 01:46:55;;;;;;;23.27;18.13;;;;;;;;;;5093639;28;20461;-66
2024/01/18 01:49:22;;;;;;;20.67;18.43;;;;;;;;;;5094924;28;20520;-67
2024/01/18 01:51:50;;;;;;;25.50;18.03;;;;;;;;;;5104289;28;20479;-67
2024/01/18 01:54:19;;;;;;;26.50;18.37;;;;;;;;;;5095591;28;20493;-67
2024/01/18 01:56:46;;;;;;;21.13;18.97;;;;;;;;;;5091729;28;20541;-66
2024/01/18 01:59:13;;;;;;;24.83;20.63;;;;;;;;;;5098968;28;20975;-66
2024/01/18 02:01:41;;;;;;;23.37;20.23;;;;;;;;;;5096796;28;20992;-66
2024/01/18 02:04:07;;;;;;;25.93;18.60;;;;;;;;;;5094766;28;20535;-66
2024/01/18 02:06:34;;;;;;;24.77;18.90;;;;;;;;;;5095194;28;20809;-66
2024/01/18 02:09:03;;;;;;;23.87;18.57;;;;;;;;;;5100980;28;20488;-67
2024/01/18 02:11:29;;;;;;;18.60;16.60;;;;;;;;;;5098555;28;21204;-67
2024/01/18 02:13:56;;;;;;;27.30;20.90;;;;;;;;;;5101820;28;20533;-67
2024/01/18 02:16:23;;;;;;;27.17;20.77;;;;;;;;;;5095731;28;20487;-66
2024/01/18 02:18:49;;;;;;;24.07;21.47;;;;;;;;;;5099521;28;20528;-66
2024/01/18 02:21:16;;;;;;;29.93;21.23;;;;;;;;;;5098957;28;20447;-67
2024/01/18 02:23:45;;;;;;;25.97;19.70;;;;;;;;;;5099044;28;20519;-66
2024/01/18 02:26:13;;;;;;;23.30;19.33;;;;;;;;;;5088911;28;20521;-66
2024/01/18 02:28:52;;;;;;;25.00;19.20;;;;;;;;;;5094025;28;20886;-66
2024/01/18 02:31:18;;;;;;;34.47;21.87;;;;;;;;;;5094041;28;20545;-67
2024/01/18 02:33:45;;;;;;;29.50;20.57;;;;;;;;;;5085274;28;21222;-67
2024/01/18 02:36:11;;;;;;;24.10;21.40;;;;;;;;;;5088726;28;20595;-67
2024/01/18 02:38:38;;;;;;;24.80;22.10;;;;;;;;;;5100004;28;20506;-67
2024/01/18 02:41:04;;;;;;;24.70;21.10;;;;;;;;;;5098019;28;20458;-67
2024/01/18 02:43:32;;;;;;;22.57;19.83;;;;;;;;;;5097049;28;20518;-66
2024/01/18 02:45:58;;;;;;;26.00;20.93;;;;;;;;;;5093991;28;20542;-66
2024/01/18 02:48:25;;;;;;;29.07;19.70;;;;;;;;;;5096615;28;21174;-66
2024/01/18 02:50:51;;;;;;;27.77;21.20;;;;;;;;;;5095575;28;20507;-66
2024/01/18 02:53:20;;;;;;;25.57;21.17;;;;;;;;;;5098533;28;20527;-66
2024/01/18 02:55:46;;;;;;;25.53;22.10;;;;;;;;;;5102141;28;20491;-67
2024/01/18 02:58:12;;;;;;;29.53;22.43;;;;;;;;;;5093398;28;20483;-67
2024/01/18 03:00:40;;;;;;;24.30;21.57;;;;;;;;;;5087912;28;20431;-67
2024/01/18 03:03:07;;;;;;;23.60;20.53;;;;;;;;;;5093873;28;20493;-67
2024/01/18 03:05:34;;;;;;;30.10;22.80;;;;;;;;;;5097190;28;20519;-67
2024/01/18 03:08:00;;;;;;;28.37;22.90;;;;;;;;;;5093812;28;20912;-67
2024/01/18 03:10:27;;;;;;;26.07;23.27;;;;;;;;;;5092033;28;20510;-67
2024/01/18 03:12:53;;;;;;;22.80;20.40;;;;;;;;;;5093247;28;20499;-67
2024/01/18 03:15:20;;;;;;;26.40;21.97;;;;;;;;;;5095080;28;20522;-67
2024/01/18 03:17:47;;;;;;;29.77;22.70;;;;;;;;;;5095513;28;20959;-67
2024/01/18 03:20:14;;;;;;;28.03;21.77;;;;;;;;;;5088411;28;20451;-66
2024/01/18 03:22:41;;;;;;;28.53;22.33;;;;;;;;;;5095014;28;20453;-67
2024/01/18 03:25:07;;;;;;;32.30;22.87;;;;;;;;;;5095079;28;20471;-67
2024/01/18 03:27:34;;;;;;;27.30;21.53;;;;;;;;;;5089937;28;20451;-67
2024/01/18 03:30:00;;;;;;;24.67;20.40;;;;;;;;;;5096118;28;20491;-67
2024/01/18 03:32:26;;;;;;;29.13;22.53;;;;;;;;;;5094931;28;20499;-69
2024/01/18 03:34:54;;;;;;;31.33;23.07;;;;;;;;;;5110538;28;20486;-67
2024/01/18 03:37:21;;;;;;;26.67;21.10;;;;;;;;;;5098982;28;20504;-66
2024/01/18 03:39:47;;;;;;;25.50;21.73;;;;;;;;;;5097809;28;20538;-67
2024/01/18 03:42:14;;;;;;;29.03;22.43;;;;;;;;;;5096531;28;20519;-67
2024/01/18 03:44:40;;;;;;;26.30;20.60;;;;;;;;;;5082165;28;20498;-67
2024/01/18 03:47:07;;;;;;;29.80;22.00;;;;;;;;;;5097156;28;20477;-67
2024/01/18 03:49:33;;;;;;;22.70;19.20;;;;;;;;;;5097416;28;20521;-66
2024/01/18 03:52:01;;;;;;;26.53;21.23;;;;;;;;;;5095200;28;20539;-67
2024/01/18 03:54:28;;;;;;;27.90;21.20;;;;;;;;;;5099098;28;20518;-67
2024/01/18 03:56:54;;;;;;;28.33;22.27;;;;;;;;;;5084206;28;20591;-66
2024/01/18 03:59:23;;;;;;;29.03;21.57;;;;;;;;;;5089402;28;20523;-67
2024/01/18 04:01:50;;;;;;;25.73;19.80;;;;;;;;;;5097351;28;20452;-67
2024/01/18 04:04:16;;;;;;;28.70;20.20;;;;;;;;;;5083149;28;20478;-66
2024/01/18 04:06:42;;;;;;;29.80;21.30;;;;;;;;;;5095577;28;20486;-66
2024/01/18 04:09:10;;;;;;;30.90;22.27;;;;;;;;;;5089526;28;20518;-66
2024/01/18 04:11:37;;;;;;;29.20;21.87;;;;;;;;;;5091769;28;20493;-66
2024/01/18 04:14:03;;;;;;;30.23;23.27;;;;;;;;;;5093603;28;20480;-66
2024/01/18 04:16:29;;;;;;;29.00;21.13;;;;;;;;;;5081446;28;20574;-66
2024/01/18 04:18:56;;;;;;;30.63;22.87;;;;;;;;;;5097848;28;20470;-67
2024/01/18 04:21:22;;;;;;;27.43;21.37;;;;;;;;;;5088306;28;20771;-66
2024/01/18 04:23:49;;;;;;;32.10;21.50;;;;;;;;;;5093507;28;20483;-66
2024/01/18 04:26:16;;;;;;;28.20;22.00;;;;;;;;;;5095474;28;20526;-67
2024/01/18 04:28:43;;;;;;;31.10;23.17;;;;;;;;;;5087695;28;20459;-66
2024/01/18 04:31:09;;;;;;;29.10;22.73;;;;;;;;;;5093613;28;20476;-67
2024/01/18 04:33:36;;;;;;;30.43;22.70;;;;;;;;;;5091386;28;20511;-66
2024/01/18 04:36:02;;;;;;;28.83;23.27;;;;;;;;;;5093690;28;20942;-66
2024/01/18 04:38:28;;;;;;;28.97;22.80;;;;;;;;;;5093330;28;20520;-66
2024/01/18 04:40:55;;;;;;;26.60;22.07;;;;;;;;;;5096608;28;20459;-66
2024/01/18 04:43:23;;;;;;;27.47;21.63;;;;;;;;;;5095716;28;20469;-67
2024/01/18 04:45:50;;;;;;;34.40;23.13;;;;;;;;;;5091556;28;20455;-67
2024/01/18 04:48:16;;;;;;;29.40;22.13;;;;;;;;;;5095770;28;20504;-67
2024/01/18 04:50:43;;;;;;;29.80;21.83;;;;;;;;;;5096039;28;20482;-67
2024/01/18 04:53:09;;;;;;;32.37;23.40;;;;;;;;;;5084905;28;20543;-66
2024/01/18 04:55:35;;;;;;;30.87;22.50;;;;;;;;;;5089672;28;20570;-66
2024/01/18 04:58:02;;;;;;;25.20;22.17;;;;;;;;;;5091042;28;20444;-66
2024/01/18 05:00:30;;;;;;;30.13;23.20;;;;;;;;;;5093967;28;20452;-66
2024/01/18 05:02:56;;;;;;;28.57;22.60;;;;;;;;;;5090776;28;20538;-66
2024/01/18 05:05:22;;;;;;;30.33;23.10;;;;;;;;;;5086854;28;20459;-66
2024/01/18 05:07:49;;;;;;;25.13;20.67;;;;;;;;;;5096106;28;20986;-66
2024/01/18 05:10:16;;;;;;;26.60;20.80;;;;;;;;;;5096761;28;20467;-66
2024/01/18 05:12:44;;;;;;;27.23;19.70;;;;;;;;;;5095578;28;20522;-66
2024/01/18 05:15:11;;;;;;;28.30;21.17;;;;;;;;;;5100147;28;20451;-66
2024/01/18 05:17:41;;;;;;;24.40;20.40;;;;;;;;;;5106726;28;20558;-67
2024/01/18 05:20:08;;;;;;;31.10;21.87;;;;;;;;;;5110194;28;20833;-67
2024/01/18 05:22:35;;;;;;;33.03;22.17;;;;;;;;;;5099632;28;20482;-66
2024/01/18 05:25:02;;;;;;;30.93;21.07;;;;;;;;;;5099979;28;20466;-66
2024/01/18 05:27:29;;;;;;;30.50;22.53;;;;;;;;;;5093695;28;20459;-66
2024/01/18 05:29:56;;;;;;;27.43;20.50;;;;;;;;;;5098224;28;20479;-66
2024/01/18 05:32:22;;;;;;;32.73;22.43;;;;;;;;;;5098894;28;20502;-66
2024/01/18 05:34:50;;;;;;;27.73;21.73;;;;;;;;;;5097216;28;20459;-66
2024/01/18 05:37:17;;;;;;;33.40;21.40;;;;;;;;;;5091156;28;20484;-66
2024/01/18 05:39:44;;;;;;;35.57;23.07;;;;;;;;;;5093676;28;20781;-66
2024/01/18 05:42:11;;;;;;;29.60;21.43;;;;;;;;;;5092786;28;20475;-67
2024/01/18 05:44:37;;;;;;;31.10;21.97;;;;;;;;;;5097460;28;20521;-67
2024/01/18 05:47:04;;;;;;;31.57;24.30;;;;;;;;;;5101411;28;20538;-67
2024/01/18 05:49:30;;;;;;;29.47;22.80;;;;;;;;;;5103977;28;20447;-66
2024/01/18 05:51:58;;;;;;;27.20;21.63;;;;;;;;;;5093315;28;20486;-67
2024/01/18 05:54:25;;;;;;;26.80;20.73;;;;;;;;;;5094169;28;20459;-66
2024/01/18 05:56:51;;;;;;;28.20;22.40;;;;;;;;;;5094266;28;20593;-66
2024/01/18 05:59:17;;;;;;;31.20;22.07;;;;;;;;;;5089806;28;20454;-66
2024/01/18 06:01:44;;;;;;;30.30;22.47;;;;;;;;;;5095593;28;20467;-66
2024/01/18 06:04:10;;;;;;;29.07;21.53;;;;;;;;;;5098467;28;20486;-67
2024/01/18 06:06:36;;;;;;;32.03;23.10;;;;;;;;;;5098503;28;20494;-66
2024/01/18 06:09:04;;;;;;;29.90;22.30;;;;;;;;;;5096258;28;20451;-66
2024/01/18 06:11:31;;;;;;;30.23;20.87;;;;;;;;;;5090274;28;20473;-65
2024/01/18 06:13:57;;;;;;;30.43;21.23;;;;;;;;;;5091035;28;20479;-65
2024/01/18 06:16:23;;;;;;;28.50;21.23;;;;;;;;;;5090113;28;20547;-65
2024/01/18 06:18:50;;;;;;;30.23;21.93;;;;;;;;;;5090381;28;20550;-65
2024/01/18 06:21:16;;;;;;;35.73;21.90;;;;;;;;;;5091137;28;20888;-65
2024/01/18 06:23:43;;;;;;;30.33;22.63;;;;;;;;;;5093946;28;20509;-65
2024/01/18 06:26:11;;;;;;;30.70;22.17;;;;;;;;;;5087935;28;20455;-66
2024/01/18 06:28:38;;;;;;;35.50;21.87;;;;;;;;;;5089197;28;20474;-65
2024/01/18 06:31:04;;;;;;;31.73;22.40;;;;;;;;;;5094012;28;20499;-65
2024/01/18 06:33:30;;;;;;;35.73;23.67;;;;;;;;;;5094406;28;20454;-66
2024/01/18 06:35:57;;;;;;;30.97;21.00;;;;;;;;;;5099004;28;20554;-67
2024/01/18 06:38:23;;;;;;;37.03;22.17;;;;;;;;;;5088813;28;20582;-64
2024/01/18 06:40:50;;;;;;;33.63;21.47;;;;;;;;;;5090766;28;20836;-65
2024/01/18 06:43:17;;;;;;;32.77;21.53;;;;;;;;;;5097729;28;20474;-64
2024/01/18 06:45:44;;;;;;;32.17;24.07;;;;;;;;;;5099646;28;20566;-64
2024/01/18 06:48:10;;;;;;;29.60;22.53;;;;;;;;;;5099647;28;20487;-64
2024/01/18 06:50:37;;;;;;;31.77;22.20;;;;;;;;;;5099539;28;20896;-66
2024/01/18 06:53:04;;;;;;;29.63;22.45;;;;;;;;;;5093374;28;20478;-65
2024/01/18 06:55:30;;;;;;;33.13;23.33;;;;;;;;;;5095197;28;20205;-65
2024/01/18 06:57:58;;;;;;;30.80;21.80;;;;;;;;;;5093940;28;20540;-65
2024/01/18 07:00:26;;;;;;;38.80;21.97;;;;;;;;;;5097923;28;20455;-67
2024/01/18 07:02:52;;;;;;;29.00;21.73;;;;;;;;;;5094268;28;20482;-66
2024/01/18 07:05:19;;;;;;;32.50;23.00;;;;;;;;;;5096616;28;20467;-66
2024/01/18 07:07:45;;;;;;;30.20;21.50;;;;;;;;;;5097413;28;20497;-66
2024/01/18 07:10:11;;;;;;;26.80;19.20;;;;;;;;;;5091642;28;20201;-66
2024/01/18 07:12:38;;;;;;;31.10;20.97;;;;;;;;;;5094456;28;20459;-66
2024/01/18 07:15:07;;;;;;;39.57;22.43;;;;;;;;;;5092027;28;20462;-63
2024/01/18 07:17:34;;;;;;;38.83;23.53;;;;;;;;;;5091292;28;20483;-64
2024/01/18 07:20:01;;;;;;;29.30;23.07;;;;;;;;;;5097656;28;20454;-64
2024/01/18 07:22:27;;;;;;;36.33;23.48;;;;;;;;;;5096636;28;20679;-64
2024/01/18 07:24:54;;;;;;;25.30;19.20;;;;;;;;;;5093544;28;20251;-64
2024/01/18 07:27:20;;;;;;;33.78;20.95;;;;;;;;;;5094609;28;20562;-66
2024/01/18 07:29:49;;;;;;;32.17;22.67;;;;;;;;;;5091755;28;20212;-65
2024/01/18 07:32:15;;;;;;;34.30;23.50;;;;;;;;;;5101284;28;20860;-64
2024/01/18 07:34:43;;;;;;;38.27;23.83;;;;;;;;;;5096629;28;20455;-64
2024/01/18 07:37:13;;;;;;;32.73;23.50;;;;;;;;;;5092906;28;20566;-64
2024/01/18 07:39:39;;;;;;;31.67;23.93;;;;;;;;;;5100272;28;20491;-64
2024/01/18 07:42:06;;;;;;;32.55;23.25;;;;;;;;;;5102904;28;20459;-64
2024/01/18 07:44:33;;;;;;;37.38;23.92;;;;;;;;;;5095558;28;20277;-64
2024/01/18 07:46:59;;;;;;;29.63;21.77;;;;;;;;;;5099611;28;20228;-64
2024/01/18 07:49:26;;;;;;;34.63;21.98;;;;;;;;;;5096907;28;20489;-64
2024/01/18 07:51:53;;;;;;;33.55;22.95;;;;;;;;;;5097350;28;20270;-64
2024/01/18 07:54:20;;;;;;;32.28;22.85;;;;;;;;;;5088095;28;20293;-65
2024/01/18 07:56:46;;;;;;;32.90;22.33;;;;;;;;;;5096464;28;20252;-65
2024/01/18 07:59:12;;;;;;;35.60;23.80;;;;;;;;;;5096281;28;20244;-64
2024/01/18 08:01:40;;;;;;;37.05;24.10;;;;;;;;;;5101208;28;20544;-64
2024/01/18 08:04:06;;;;;;;39.45;23.33;;;;;;;;;;5095070;28;20207;-65
2024/01/18 08:06:33;;;;;;;32.58;24.05;;;;;;;;;;5093556;28;20266;-67
2024/01/18 08:09:00;;;;;;;33.42;23.08;;;;;;;;;;5094549;28;20209;-67
2024/01/18 08:11:27;;;;;;;31.87;23.47;;;;;;;;;;5093255;28;20239;-68
2024/01/18 08:13:53;;;;;;;29.35;22.77;;;;;;;;;;5094798;28;20495;-66
2024/01/18 08:16:20;;;;;;;35.58;23.63;;;;;;;;;;5093660;28;20251;-66
2024/01/18 08:18:46;;;;;;;34.65;24.15;;;;;;;;;;5100758;28;20231;-66
2024/01/18 08:21:13;;;;;;;29.50;21.73;;;;;;;;;;5093137;28;20269;-65
2024/01/18 08:23:40;;;;;;;37.38;24.63;;;;;;;;;;5094784;28;20266;-67
2024/01/18 08:26:09;;;;;;;35.35;23.65;;;;;;;;;;5094999;28;20236;-66
2024/01/18 08:28:35;;;;;;;37.63;24.83;;;;;;;;;;5093061;28;20235;-66
2024/01/18 08:31:02;;;;;;;39.73;25.43;;;;;;;;;;5091872;28;20252;-66
2024/01/18 08:33:28;;;;;;;41.50;26.73;;;;;;;;;;5093656;28;20439;-66
2024/01/18 08:35:55;;;;;;;38.83;26.07;;;;;;;;;;5091577;28;20533;-66
2024/01/18 08:38:21;;;;;;;40.63;28.67;;;;;;;;;;5097790;28;20599;-66
2024/01/18 08:40:48;;;;;;;33.17;26.93;;;;;;;;;;5096565;28;20454;-67
2024/01/18 08:43:17;;;;;;;33.73;24.50;;;;;;;;;;5095568;28;20455;-67
2024/01/18 08:45:43;;;;;;;29.90;23.60;;;;;;;;;;5094567;28;20497;-66
2024/01/18 08:48:10;;;;;;;31.63;23.40;;;;;;;;;;5095652;28;20515;-67
2024/01/18 08:50:37;;;;;;;28.73;22.20;;;;;;;;;;5096077;28;21022;-65
2024/01/18 08:53:04;;;;;;;31.00;23.27;;;;;;;;;;5104205;28;20868;-66
2024/01/18 08:55:31;;;;;;;30.70;22.60;;;;;;;;;;5100224;28;20459;-66
2024/01/18 08:57:57;;;;;;;22.47;20.17;;;;;;;;;;5100996;28;20514;-66
2024/01/18 09:00:27;;;;;;;21.63;19.53;;;;;;;;;;5096799;28;21040;-67
2024/01/18 09:02:54;;;;;;;21.60;19.30;;;;;;;;;;5099542;28;20463;-66
2024/01/18 09:05:20;;;;;;;20.17;18.17;;;;;;;;;;5092234;28;20490;-66
2024/01/18 09:07:47;;;;;;;19.97;17.33;;;;;;;;;;5098818;28;20455;-66
2024/01/18 09:10:13;;;;;;;20.23;18.00;;;;;;;;;;5090058;28;20486;-68
2024/01/18 09:12:40;;;;;;;19.57;17.47;;;;;;;;;;5097914;28;21120;-77
2024/01/18 09:15:07;;;;;;;20.73;18.50;;;;;;;;;;5092108;28;20447;-76
2024/01/18 09:17:34;;;;;;;18.30;16.60;;;;;;;;;;5107839;28;20477;-77
2024/01/18 09:20:01;;;;;;;17.63;16.10;;;;;;;;;;5097443;28;20478;-80
2024/01/18 09:22:27;;;;;;;18.30;16.70;;;;;;;;;;5100681;28;20583;-80
2024/01/18 09:24:54;;;;;;;19.40;17.43;;;;;;;;;;5096257;28;20459;-80
2024/01/18 09:27:21;;;;;;;18.07;14.70;;;;;;;;;;5100500;28;20479;-77
2024/01/18 09:29:48;;;;;;;16.10;14.73;;;;;;;;;;5099584;28;20836;-77
2024/01/18 09:32:15;;;;;;;16.53;14.90;;;;;;;;;;5106090;28;20458;-72
2024/01/18 09:34:43;;;;;;;16.80;15.37;;;;;;;;;;5099530;28;20455;-75
2024/01/18 09:37:09;;;;;;;16.50;14.90;;;;;;;;;;5101395;28;20506;-78
2024/01/18 09:39:35;;;;;;;17.50;15.77;;;;;;;;;;5100074;28;20498;-75
2024/01/18 09:42:03;;;;;;;14.07;13.00;;;;;;;;;;5093762;28;20459;-80
2024/01/18 09:44:31;;;;;;;15.40;14.20;;;;;;;;;;5096023;28;20486;-76
2024/01/18 09:46:58;;;;;;;16.63;14.87;;;;;;;;;;5099506;28;20455;-79
2024/01/18 09:49:25;;;;;;;15.37;14.20;;;;;;;;;;5095426;28;20818;-79
2024/01/18 09:51:55;;;;;;;15.70;14.27;;;;;;;;;;5098394;28;20481;-74
2024/01/18 09:54:22;;;;;;;16.77;15.10;;;;;;;;;;5094501;28;20467;-76
2024/01/18 09:56:49;;;;;;;15.43;14.13;;;;;;;;;;5099138;28;20465;-77
2024/01/18 09:59:17;;;;;;;16.33;14.70;;;;;;;;;;5104188;28;20490;-76
2024/01/18 10:01:43;;;;;;;15.13;13.60;;;;;;;;;;5095934;28;20469;-76
2024/01/18 10:04:12;;;;;;;14.80;13.60;;;;;;;;;;5093318;28;20447;-82
2024/01/18 10:06:38;;;;;;;13.20;12.13;;;;;;;;;;5094510;28;20459;-64
2024/01/18 10:09:06;;;;;;;13.47;12.20;;;;;;;;;;5096279;28;20475;-66
2024/01/18 10:11:32;;;;;;;14.97;13.67;;;;;;;;;;5098769;28;20447;-65
2024/01/18 10:14:02;;;;;;;13.67;12.77;;;;;;;;;;5091516;28;20470;-66
2024/01/18 10:16:29;;;;;;;13.17;12.13;;;;;;;;;;5104402;28;20482;-67
2024/01/18 10:18:56;;;;;;;17.67;16.37;;;;;;;;;;5086608;28;20487;-66
2024/01/18 10:21:23;;;;;;;16.63;15.33;;;;;;;;;;5098335;28;20470;-66
2024/01/18 10:23:50;;;;;;;15.67;14.57;;;;;;;;;;5097896;28;20540;-66
2024/01/18 10:26:17;;;;;;;15.43;14.10;;;;;;;;;;5088442;28;20459;-66
2024/01/18 10:28:44;;;;;;;17.67;15.80;;;;;;;;;;5095556;28;20474;-68
2024/01/18 10:31:10;;;;;;;17.40;16.00;;;;;;;;;;5092979;28;20455;-69
2024/01/18 10:33:37;;;;;;;15.70;14.60;;;;;;;;;;5092560;28;20451;-69
2024/01/18 10:36:03;;;;;;;15.50;14.40;;;;;;;;;;5092443;28;20463;-66
2024/01/18 10:38:32;;;;;;;14.60;13.60;;;;;;;;;;5103190;28;20501;-67
2024/01/18 10:40:59;;;;;;;16.17;15.00;;;;;;;;;;5103013;28;20465;-65
2024/01/18 10:43:29;;;;;;;15.00;14.00;;;;;;;;;;5091797;28;20508;-68
2024/01/18 10:45:56;;;;;;;14.97;13.87;;;;;;;;;;5098385;28;20506;-68
2024/01/18 10:48:22;;;;;;;14.83;13.83;;;;;;;;;;5099104;28;20467;-69
2024/01/18 10:50:51;;;;;;;14.50;13.60;;;;;;;;;;5098655;28;20447;-66
2024/01/18 10:53:17;;;;;;;10.77;10.07;;;;;;;;;;5098634;28;20523;-68
2024/01/18 10:55:44;;;;;;;13.87;13.00;;;;;;;;;;5100710;28;21195;-66
2024/01/18 10:58:10;;;;;;;15.30;14.00;;;;;;;;;;5104709;28;20513;-68
2024/01/18 11:00:38;;;;;;;14.33;13.30;;;;;;;;;;5101382;28;20494;-64
2024/01/18 11:03:06;;;;;;;14.40;13.50;;;;;;;;;;5097557;28;20491;-66
2024/01/18 11:05:33;;;;;;;14.37;13.10;;;;;;;;;;5091035;28;20676;-66
2024/01/18 11:08:00;;;;;;;14.20;13.10;;;;;;;;;;5091119;28;20463;-66
2024/01/18 11:10:26;;;;;;;14.83;13.73;;;;;;;;;;5094170;28;20906;-65
2024/01/18 11:12:53;;;;;;;14.70;13.50;;;;;;;;;;5097123;28;20478;-66
2024/01/18 11:15:20;;;;;;;14.43;13.33;;;;;;;;;;5096809;28;20848;-65
2024/01/18 11:17:48;;;;;;;14.87;13.77;;;;;;;;;;5103534;28;20555;-68
2024/01/18 11:20:15;;;;;;;14.27;13.37;;;;;;;;;;5100927;28;20514;-67
2024/01/18 11:22:42;;;;;;;14.20;13.13;;;;;;;;;;5095099;28;20443;-67
2024/01/18 11:25:09;;;;;;;13.23;12.43;;;;;;;;;;5095272;28;20482;-69
2024/01/18 11:27:37;;;;;;;13.53;12.47;;;;;;;;;;5082792;28;20474;-70
2024/01/18 11:30:04;;;;;;;13.70;12.57;;;;;;;;;;5089470;28;20468;-67
2024/01/18 11:32:32;;;;;;;10.47;9.67;;;;;;;;;;5087600;28;20475;-68
2024/01/18 11:35:08;;;;;;;8.77;8.17;;;;;;;;;;5088272;28;21055;-68
2024/01/18 11:37:35;;;;;;;12.63;11.53;;;;;;;;;;5100862;28;20487;-68
2024/01/18 11:40:05;;;;;;;12.50;11.70;;;;;;;;;;5096674;28;20500;-67
2024/01/18 11:42:33;;;;;;;11.67;10.87;;;;;;;;;;5100958;28;20472;-67
2024/01/18 11:45:00;;;;;;;12.53;11.27;;;;;;;;;;5095598;28;20443;-66
2024/01/18 11:47:28;;;;;;;12.17;11.40;;;;;;;;;;5096721;28;20489;-67
2024/01/18 11:49:55;;;;;;;12.90;12.00;;;;;;;;;;5096364;28;20483;-67
2024/01/18 11:52:23;;;;;;;12.13;11.13;;;;;;;;;;5098565;28;20482;-67
2024/01/18 11:54:51;;;;;;;12.23;11.43;;;;;;;;;;5095885;28;20468;-67
2024/01/18 11:57:17;;;;;;;10.30;9.50;;;;;;;;;;5092026;28;20453;-68
2024/01/18 11:59:44;;;;;;;13.80;12.93;;;;;;;;;;5094985;28;20518;-68
2024/01/18 12:02:11;;;;;;;14.00;13.10;;;;;;;;;;5096160;28;20483;-68
2024/01/18 12:04:37;;;;;;;10.33;9.63;;;;;;;;;;5094091;28;21005;-68
2024/01/18 12:07:05;;;;;;;12.70;11.90;;;;;;;;;;5102223;28;20467;-66
2024/01/18 12:09:33;;;;;;;12.43;10.27;;;;;;;;;;5095756;28;20443;-67
2024/01/18 12:12:00;;;;;;;10.17;9.17;;;;;;;;;;5089814;28;20522;-68
2024/01/18 12:14:26;;;;;;;9.73;9.03;;;;;;;;;;5095642;28;20466;-68
2024/01/18 12:16:53;;;;;;;10.33;9.60;;;;;;;;;;5095502;28;20895;-70
2024/01/18 12:19:29;;;;;;;12.83;12.03;;;;;;;;;;5092583;28;20475;-67
2024/01/18 12:21:56;;;;;;;12.70;11.90;;;;;;;;;;5089504;28;20454;-67
2024/01/18 12:24:22;;;;;;;13.20;12.20;;;;;;;;;;5087142;28;20498;-66
2024/01/18 12:26:50;;;;;;;11.30;10.30;;;;;;;;;;5096195;28;20463;-71
2024/01/18 12:29:17;;;;;;;9.07;8.47;;;;;;;;;;5096474;28;20447;-68
2024/01/18 12:31:45;;;;;;;10.30;9.50;;;;;;;;;;5091703;28;20451;-67
2024/01/18 12:34:12;;;;;;;10.13;9.43;;;;;;;;;;5098519;28;20810;-67
2024/01/18 12:36:38;;;;;;;10.00;9.30;;;;;;;;;;5101041;28;20498;-66
2024/01/18 12:39:05;;;;;;;12.10;11.40;;;;;;;;;;5096505;28;21128;-67
2024/01/18 12:41:31;;;;;;;11.20;10.23;;;;;;;;;;5094404;28;20527;-68
2024/01/18 12:44:05;;;;;;;10.80;9.83;;;;;;;;;;5090391;28;20491;-67
2024/01/18 12:46:33;;;;;;;10.17;9.47;;;;;;;;;;5091537;28;20466;-67
2024/01/18 12:48:59;;;;;;;10.83;10.13;;;;;;;;;;5100299;28;20473;-67
2024/01/18 12:51:27;;;;;;;12.30;11.60;;;;;;;;;;5095950;28;21138;-68
2024/01/18 12:53:54;;;;;;;12.80;12.03;;;;;;;;;;5097122;28;20480;-68
2024/01/18 12:56:20;;;;;;;10.80;10.00;;;;;;;;;;5095218;28;20470;-65
2024/01/18 12:58:47;;;;;;;11.20;10.50;;;;;;;;;;5091899;28;20491;-66
2024/01/18 13:01:27;;;;;;;12.27;11.47;;;;;;;;;;5096274;28;21004;-66
2024/01/18 13:04:08;;;;;;;11.70;10.97;;;;;;;;;;5089245;28;20461;-69
2024/01/18 13:06:35;;;;;;;10.27;9.40;;;;;;;;;;5087329;28;20502;-65
2024/01/18 13:09:00;;;;;;;10.90;10.03;;;;;;;;;;5092445;28;20483;-68
2024/01/18 13:11:27;;;;;;;10.93;10.03;;;;;;;;;;5108993;28;20459;-69
2024/01/18 13:13:54;;;;;;;11.00;9.87;;;;;;;;;;5107978;28;20209;-68
2024/01/18 13:16:23;;;;;;;10.63;9.57;;;;;;;;;;5094320;28;20470;-66
2024/01/18 13:18:52;;;;;;;10.50;9.83;;;;;;;;;;5096635;28;20478;-67
2024/01/18 13:21:19;;;;;;;10.57;9.73;;;;;;;;;;5091924;28;20554;-66
2024/01/18 13:23:45;;;;;;;10.03;9.30;;;;;;;;;;5094882;28;20487;-67
2024/01/18 13:26:11;;;;;;;10.20;9.50;;;;;;;;;;5096181;28;20894;-64
2024/01/18 13:28:38;;;;;;;11.83;11.00;;;;;;;;;;5098116;28;20507;-67
2024/01/18 13:31:05;;;;;;;11.00;10.30;;;;;;;;;;5094256;28;20443;-66
2024/01/18 13:33:31;;;;;;;10.60;9.70;;;;;;;;;;5097342;28;20458;-66
2024/01/18 13:35:59;;;;;;;11.80;11.20;;;;;;;;;;5099152;28;20458;-67
2024/01/18 13:38:25;;;;;;;12.53;11.83;;;;;;;;;;5093213;28;20530;-67
2024/01/18 13:40:52;;;;;;;12.77;11.90;;;;;;;;;;5096253;28;20479;-65
2024/01/18 13:43:19;;;;;;;12.73;11.93;;;;;;;;;;5087943;28;20455;-66
2024/01/18 13:45:45;;;;;;;11.47;10.87;;;;;;;;;;5097027;28;20480;-66
2024/01/18 13:48:11;;;;;;;12.57;11.53;;;;;;;;;;5096398;28;20477;-68
2024/01/18 13:50:39;;;;;;;12.90;11.67;;;;;;;;;;5098309;28;20948;-68
2024/01/18 13:53:06;;;;;;;10.67;9.83;;;;;;;;;;5103331;28;21105;-67
2024/01/18 13:55:33;;;;;;;11.10;10.37;;;;;;;;;;5091555;28;20480;-68
2024/01/18 13:57:59;;;;;;;9.73;9.13;;;;;;;;;;5098039;28;20478;-67
2024/01/18 14:00:26;;;;;;;9.83;9.13;;;;;;;;;;5093965;28;20495;-70
2024/01/18 14:02:53;;;;;;;10.40;9.50;;;;;;;;;;5101577;28;20496;-68
2024/01/18 14:05:19;;;;;;;10.40;9.60;;;;;;;;;;5099148;28;20463;-67
2024/01/18 14:07:45;;;;;;;10.00;9.23;;;;;;;;;;5093932;28;21001;-68
2024/01/18 14:10:14;;;;;;;9.70;9.10;;;;;;;;;;5098954;28;20469;-67
2024/01/18 14:12:40;;;;;;;9.70;9.00;;;;;;;;;;5104318;28;20458;-67
2024/01/18 14:15:07;;;;;;;9.37;8.60;;;;;;;;;;5088880;28;20479;-69
2024/01/18 14:17:33;;;;;;;9.30;8.53;;;;;;;;;;5088622;28;20526;-68